createdAt,value
2022-09-11T00:01:29.258Z,70698.00
2022-09-11T00:03:57.066Z,70657.06
2022-09-11T00:06:29.867Z,70642.59
2022-09-11T00:09:01.355Z,70684.63
2022-09-11T00:11:32.932Z,70633.81
2022-09-11T00:14:00.777Z,70675.22
2022-09-11T00:16:31.401Z,70657.13
2022-09-11T00:19:00.802Z,70669.22
2022-09-11T00:21:29.538Z,70700.59
2022-09-11T00:23:58.142Z,70656.84
2022-09-11T00:26:25.827Z,70669.22
2022-09-11T00:28:55.170Z,70656.22
2022-09-11T00:31:27.899Z,70653.22
2022-09-11T00:33:56.103Z,70681.25
2022-09-11T00:36:26.343Z,70653.78
2022-09-11T00:38:54.953Z,70666.81
2022-09-11T00:41:24.499Z,70666.22
2022-09-11T00:44:28.225Z,70657.41
2022-09-11T00:46:58.311Z,70643.22
2022-09-11T00:49:54.272Z,70648.00
2022-09-11T00:52:27.185Z,70652.44
2022-09-11T00:55:16.748Z,70625.31
2022-09-11T00:58:01.673Z,70651.03
2022-09-11T01:00:29.511Z,70660.19
2022-09-11T01:02:58.147Z,70628.53
2022-09-11T01:05:28.399Z,70663.69
2022-09-11T01:07:56.838Z,70652.16
2022-09-11T01:10:39.106Z,70640.31
2022-09-11T01:13:06.486Z,70652.72
2022-09-11T01:15:41.635Z,70658.59
2022-09-11T01:18:31.084Z,70664.47
2022-09-11T01:21:20.014Z,70663.56
2022-09-11T01:24:12.051Z,70641.69
2022-09-11T01:26:58.074Z,70652.06
2022-09-11T01:29:48.443Z,70658.59
2022-09-11T01:32:26.310Z,70654.44
2022-09-11T01:35:08.293Z,70643.84
2022-09-11T01:37:59.225Z,70619.66
2022-09-11T01:40:52.949Z,70632.66
2022-09-11T01:43:29.514Z,70597.75
2022-09-11T01:46:07.190Z,70646.59
2022-09-11T01:48:47.175Z,70635.03
2022-09-11T01:51:22.407Z,70616.75
2022-09-11T01:53:53.036Z,70653.66
2022-09-11T01:56:33.042Z,70639.78
2022-09-11T01:59:06.177Z,70626.16
2022-09-11T02:01:42.296Z,70625.59
2022-09-11T02:04:18.898Z,70646.28
2022-09-11T02:06:52.066Z,70660.78
2022-09-11T02:09:31.793Z,70616.16
2022-09-11T02:12:03.613Z,70613.84
2022-09-11T02:14:35.012Z,70627.09
2022-09-11T02:17:24.258Z,70604.06
2022-09-11T02:19:54.710Z,70613.53
2022-09-11T02:22:22.644Z,70624.50
2022-09-11T02:24:50.097Z,70628.63
2022-09-11T02:27:22.967Z,70642.19
2022-09-11T02:29:53.130Z,70634.22
2022-09-11T02:32:22.832Z,70609.44
2022-09-11T02:34:51.127Z,70613.28
2022-09-11T02:37:41.086Z,70609.44
2022-09-11T02:40:55.286Z,70635.13
2022-09-11T02:43:51.208Z,70590.44
2022-09-11T02:46:45.985Z,70635.13
2022-09-11T02:49:34.927Z,70657.59
2022-09-11T02:52:20.772Z,70605.94
2022-09-11T02:55:19.233Z,70584.09
2022-09-11T02:57:59.794Z,70605.09
2022-09-11T03:00:28.577Z,70604.50
2022-09-11T03:02:56.416Z,70625.78
2022-09-11T03:05:23.892Z,70595.34
2022-09-11T03:07:51.828Z,70603.06
2022-09-11T03:10:19.246Z,70609.28
2022-09-11T03:12:46.644Z,70557.91
2022-09-11T03:15:15.928Z,70610.25
2022-09-11T03:17:43.387Z,70570.41
2022-09-11T03:20:10.992Z,70588.16
2022-09-11T03:22:39.734Z,70575.81
2022-09-11T03:25:07.708Z,70571.13
2022-09-11T03:27:37.548Z,70559.91
2022-09-11T03:30:09.533Z,70540.78
2022-09-11T03:32:36.918Z,70537.53
2022-09-11T03:35:04.599Z,70571.22
2022-09-11T03:37:32.608Z,70544.69
2022-09-11T03:40:01.673Z,70604.63
2022-09-11T03:42:29.417Z,70566.63
2022-09-11T03:44:56.885Z,70526.19
2022-09-11T03:47:24.514Z,70532.09
2022-09-11T03:49:55.879Z,70556.56
2022-09-11T03:52:23.257Z,70526.47
2022-09-11T03:54:51.142Z,70522.31
2022-09-11T03:57:18.556Z,70565.69
2022-09-11T03:59:45.967Z,70539.69
2022-09-11T04:02:14.064Z,70525.53
2022-09-11T04:04:41.606Z,70531.16
2022-09-11T04:07:09.292Z,70548.84
2022-09-11T04:09:36.955Z,70541.78
2022-09-11T04:12:04.568Z,70545.91
2022-09-11T04:14:32.779Z,70521.72
2022-09-11T04:17:00.230Z,70561.00
2022-09-11T04:19:29.501Z,70531.78
2022-09-11T04:21:57.366Z,70537.13
2022-09-11T04:24:25.112Z,70507.63
2022-09-11T04:26:55.262Z,70525.94
2022-09-11T04:29:29.054Z,70530.97
2022-09-11T04:31:57.800Z,70528.88
2022-09-11T04:34:29.030Z,70549.84
2022-09-11T04:36:56.640Z,70497.06
2022-09-11T04:39:24.600Z,70532.16
2022-09-11T04:41:52.021Z,70514.72
2022-09-11T04:44:20.688Z,70551.31
2022-09-11T04:46:48.478Z,70559.84
2022-09-11T04:49:17.089Z,70546.56
2022-09-11T04:51:46.646Z,70520.56
2022-09-11T04:54:18.090Z,70544.72
2022-09-11T04:56:46.393Z,70536.72
2022-09-11T04:59:20.107Z,70604.84
2022-09-11T05:01:54.648Z,70593.59
2022-09-11T05:04:26.259Z,70546.34
2022-09-11T05:06:55.470Z,70549.28
2022-09-11T05:09:22.838Z,70547.50
2022-09-11T05:11:50.489Z,70590.56
2022-09-11T05:14:18.505Z,70573.44
2022-09-11T05:16:48.481Z,70580.50
2022-09-11T05:19:18.961Z,70593.47
2022-09-11T05:21:48.149Z,70623.19
2022-09-11T05:24:16.220Z,70642.94
2022-09-11T05:26:43.656Z,70629.59
2022-09-11T05:29:14.953Z,70656.44
2022-09-11T05:32:03.566Z,70678.81
2022-09-11T05:34:31.214Z,70653.34
2022-09-11T05:37:02.192Z,70703.28
2022-09-11T05:39:32.862Z,70682.16
2022-09-11T05:42:03.998Z,70677.38
2022-09-11T05:44:36.958Z,70685.00
2022-09-11T05:47:04.785Z,70693.84
2022-09-11T05:49:32.533Z,70685.81
2022-09-11T05:52:01.981Z,70703.53
2022-09-11T05:54:31.626Z,70671.28
2022-09-11T05:57:07.429Z,70743.72
2022-09-11T05:59:36.542Z,70687.81
2022-09-11T06:02:04.169Z,70589.97
2022-09-11T06:04:40.084Z,70733.31
2022-09-11T06:07:08.686Z,70723.75
2022-09-11T06:09:36.912Z,70756.28
2022-09-11T06:12:04.846Z,70750.88
2022-09-11T06:14:33.279Z,70764.69
2022-09-11T06:17:01.144Z,70789.75
2022-09-11T06:19:32.270Z,70787.34
2022-09-11T06:21:59.889Z,70802.72
2022-09-11T06:24:40.618Z,70768.38
2022-09-11T06:27:08.381Z,70806.22
2022-09-11T06:29:38.752Z,70826.00
2022-09-11T06:32:07.340Z,70798.94
2022-09-11T06:34:34.943Z,70841.53
2022-09-11T06:37:06.520Z,70848.59
2022-09-11T06:39:34.302Z,70819.59
2022-09-11T06:42:02.843Z,70843.94
2022-09-11T06:44:35.051Z,70858.69
2022-09-11T06:47:03.940Z,70845.03
2022-09-11T06:49:32.887Z,70860.41
2022-09-11T06:52:18.865Z,70853.88
2022-09-11T06:54:57.374Z,70859.13
2022-09-11T06:57:24.732Z,70863.88
2022-09-11T06:59:52.766Z,70823.84
2022-09-11T07:02:21.168Z,70851.63
2022-09-11T07:04:48.771Z,70872.88
2022-09-11T07:07:17.608Z,70861.97
2022-09-11T07:09:45.214Z,70843.59
2022-09-11T07:12:13.240Z,70847.38
2022-09-11T07:14:41.392Z,70875.22
2022-09-11T07:17:16.049Z,70835.53
2022-09-11T07:19:45.932Z,70864.94
2022-09-11T07:22:15.032Z,70813.53
2022-09-11T07:24:42.497Z,70813.19
2022-09-11T07:27:13.912Z,70810.81
2022-09-11T07:29:41.778Z,70851.97
2022-09-11T07:32:10.278Z,70856.13
2022-09-11T07:34:39.581Z,70827.22
2022-09-11T07:37:09.969Z,70834.00
2022-09-11T07:39:39.357Z,70841.19
2022-09-11T07:42:12.039Z,70907.34
2022-09-11T07:44:39.429Z,70904.50
2022-09-11T07:47:07.220Z,70939.38
2022-09-11T07:49:40.225Z,70932.38
2022-09-11T07:52:08.974Z,70948.81
2022-09-11T07:54:42.797Z,71020.16
2022-09-11T07:57:11.901Z,70953.72
2022-09-11T07:59:39.424Z,71017.94
2022-09-11T08:02:09.336Z,70991.22
2022-09-11T08:04:36.702Z,71003.72
2022-09-11T08:07:04.261Z,70975.63
2022-09-11T08:09:34.893Z,71012.25
2022-09-11T08:12:04.609Z,71027.28
2022-09-11T08:14:36.036Z,71044.97
2022-09-11T08:17:09.650Z,71038.31
2022-09-11T08:19:38.906Z,70969.38
2022-09-11T08:22:06.439Z,70949.78
2022-09-11T08:24:39.570Z,70964.94
2022-09-11T08:27:07.447Z,71006.03
2022-09-11T08:29:38.615Z,70992.41
2022-09-11T08:32:06.624Z,71038.75
2022-09-11T08:34:34.433Z,70912.94
2022-09-11T08:37:01.947Z,70920.81
2022-09-11T08:39:33.077Z,70960.06
2022-09-11T08:42:16.467Z,70959.41
2022-09-11T08:44:54.155Z,70938.81
2022-09-11T08:47:34.599Z,70911.03
2022-09-11T08:50:12.248Z,70910.44
2022-09-11T08:52:41.356Z,70903.38
2022-09-11T08:55:17.294Z,70907.84
2022-09-11T08:57:54.681Z,70897.50
2022-09-11T09:00:40.399Z,70934.00
2022-09-11T09:03:35.989Z,70926.84
2022-09-11T09:06:21.563Z,70903.38
2022-09-11T09:09:18.826Z,70948.94
2022-09-11T09:12:10.581Z,70963.19
2022-09-11T09:14:50.613Z,70919.63
2022-09-11T09:17:32.924Z,70945.66
2022-09-11T09:20:16.641Z,70990.41
2022-09-11T09:22:48.883Z,70932.31
2022-09-11T09:25:21.394Z,70947.94
2022-09-11T09:27:56.098Z,70945.81
2022-09-11T09:30:27.205Z,70966.84
2022-09-11T09:33:27.063Z,70932.22
2022-09-11T09:35:54.996Z,70919.22
2022-09-11T09:38:29.341Z,70966.97
2022-09-11T09:41:24.873Z,70911.59
2022-09-11T09:44:04.813Z,70935.69
2022-09-11T09:46:42.524Z,70959.34
2022-09-11T09:49:19.296Z,70894.09
2022-09-11T09:51:46.681Z,70936.41
2022-09-11T09:54:17.970Z,70929.16
2022-09-11T09:56:53.157Z,70977.34
2022-09-11T09:59:34.267Z,71017.81
2022-09-11T10:02:01.796Z,71006.53
2022-09-11T10:04:32.287Z,70995.84
2022-09-11T10:07:07.975Z,70995.63
2022-09-11T10:09:35.523Z,70993.56
2022-09-11T10:12:12.964Z,71010.78
2022-09-11T10:15:02.425Z,70988.03
2022-09-11T10:17:30.313Z,70977.44
2022-09-11T10:20:15.679Z,70968.31
2022-09-11T10:22:43.307Z,70925.25
2022-09-11T10:25:16.857Z,70953.75
2022-09-11T10:27:56.350Z,70935.69
2022-09-11T10:30:29.969Z,70865.88
2022-09-11T10:33:03.342Z,70900.63
2022-09-11T10:35:34.547Z,70869.81
2022-09-11T10:38:05.252Z,70881.94
2022-09-11T10:40:32.649Z,70899.53
2022-09-11T10:43:00.172Z,70869.81
2022-09-11T10:45:27.704Z,70800.16
2022-09-11T10:47:55.066Z,70865.88
2022-09-11T10:50:25.638Z,70890.69
2022-09-11T10:53:31.375Z,70875.91
2022-09-11T10:56:05.938Z,70863.47
2022-09-11T10:58:39.463Z,70898.44
2022-09-11T11:01:07.284Z,70840.97
2022-09-11T11:03:35.435Z,70882.97
2022-09-11T11:06:21.937Z,70863.09
2022-09-11T11:08:55.122Z,70854.50
2022-09-11T11:11:46.036Z,70853.03
2022-09-11T11:14:21.148Z,70885.22
2022-09-11T11:17:15.627Z,70867.72
2022-09-11T11:19:58.569Z,70882.25
2022-09-11T11:22:41.951Z,70841.53
2022-09-11T11:25:27.070Z,70845.69
2022-09-11T11:28:13.922Z,70846.00
2022-09-11T11:31:12.514Z,70837.47
2022-09-11T11:34:04.405Z,70843.44
2022-09-11T11:36:52.187Z,70823.56
2022-09-11T11:39:28.732Z,70877.72
2022-09-11T11:42:14.399Z,70834.22
2022-09-11T11:45:00.550Z,70852.66
2022-09-11T11:47:37.136Z,70833.13
2022-09-11T11:50:31.095Z,70797.94
2022-09-11T11:53:19.288Z,70827.28
2022-09-11T11:55:59.649Z,70853.66
2022-09-11T11:58:42.989Z,70779.09
2022-09-11T12:01:32.278Z,70769.13
2022-09-11T12:04:12.918Z,70786.91
2022-09-11T12:06:40.335Z,70783.28
2022-09-11T12:09:12.594Z,70807.81
2022-09-11T12:11:39.940Z,70783.28
2022-09-11T12:14:08.018Z,70787.03
2022-09-11T12:16:36.565Z,70847.75
2022-09-11T12:19:05.984Z,70844.69
2022-09-11T12:21:35.113Z,70827.72
2022-09-11T12:24:05.489Z,70854.63
2022-09-11T12:26:33.247Z,70818.75
2022-09-11T12:29:13.099Z,70894.75
2022-09-11T12:31:52.465Z,70886.66
2022-09-11T12:34:38.708Z,70834.38
2022-09-11T12:37:20.229Z,70868.16
2022-09-11T12:40:03.516Z,70834.53
2022-09-11T12:42:30.848Z,70826.22
2022-09-11T12:44:59.708Z,70837.47
2022-09-11T12:47:37.291Z,70832.72
2022-09-11T12:50:19.211Z,70859.09
2022-09-11T12:52:54.770Z,70871.75
2022-09-11T12:55:39.857Z,70869.28
2022-09-11T12:58:26.036Z,70889.38
2022-09-11T13:01:24.947Z,70940.00
2022-09-11T13:04:11.030Z,70875.75
2022-09-11T13:06:44.634Z,70921.59
2022-09-11T13:09:37.196Z,70938.72
2022-09-11T13:12:47.464Z,70893.78
2022-09-11T13:15:57.167Z,70967.78
2022-09-11T13:18:35.572Z,70961.88
2022-09-11T13:21:14.647Z,70872.63
2022-09-11T13:23:42.994Z,70992.78
2022-09-11T13:26:22.706Z,70996.50
2022-09-11T13:28:53.239Z,71054.47
2022-09-11T13:31:35.089Z,71057.06
2022-09-11T13:34:13.956Z,71139.56
2022-09-11T13:36:41.968Z,71107.47
2022-09-11T13:39:10.285Z,71186.09
2022-09-11T13:41:44.406Z,71164.28
2022-09-11T13:44:27.851Z,71196.88
2022-09-11T13:46:55.643Z,71151.03
2022-09-11T13:49:35.998Z,71251.13
2022-09-11T13:52:06.363Z,71176.09
2022-09-11T13:55:10.264Z,71179.31
2022-09-11T13:57:53.047Z,71167.66
2022-09-11T14:00:50.832Z,71152.91
2022-09-11T14:03:28.398Z,71192.28
2022-09-11T14:06:01.483Z,71225.34
2022-09-11T14:08:28.882Z,71296.72
2022-09-11T14:10:59.658Z,71323.66
2022-09-11T14:13:30.240Z,71275.50
2022-09-11T14:16:06.051Z,71295.75
2022-09-11T14:18:55.562Z,71310.00
2022-09-11T14:21:31.135Z,71310.38
2022-09-11T14:23:59.783Z,71292.00
2022-09-11T14:26:35.619Z,71275.00
2022-09-11T14:29:24.791Z,71332.69
2022-09-11T14:32:15.035Z,71288.56
2022-09-11T14:34:42.371Z,71289.63
2022-09-11T14:37:15.442Z,71288.75
2022-09-11T14:39:50.140Z,71283.66
2022-09-11T14:42:32.807Z,71268.75
2022-09-11T14:45:07.585Z,71286.06
2022-09-11T14:47:35.004Z,71271.41
2022-09-11T14:50:02.554Z,71218.47
2022-09-11T14:52:30.454Z,71143.44
2022-09-11T14:54:57.958Z,71248.69
2022-09-11T14:57:32.426Z,71280.13
2022-09-11T15:00:00.020Z,71297.81
2022-09-11T15:02:29.105Z,71331.13
2022-09-11T15:04:58.429Z,71323.00
2022-09-11T15:07:27.527Z,71333.38
2022-09-11T15:09:55.617Z,71341.97
2022-09-11T15:12:23.454Z,71294.81
2022-09-11T15:14:56.928Z,71303.78
2022-09-11T15:17:25.613Z,71295.44
2022-09-11T15:19:53.673Z,71333.16
2022-09-11T15:22:21.638Z,71300.84
2022-09-11T15:24:49.330Z,71258.78
2022-09-11T15:27:19.066Z,71263.81
2022-09-11T15:29:46.570Z,71305.47
2022-09-11T15:32:14.404Z,71272.59
2022-09-11T15:34:43.530Z,71284.41
2022-09-11T15:37:12.062Z,71252.41
2022-09-11T15:39:39.697Z,71262.44
2022-09-11T15:42:07.541Z,71248.78
2022-09-11T15:44:36.573Z,71243.16
2022-09-11T15:47:04.359Z,71244.75
2022-09-11T15:49:31.828Z,71240.38
2022-09-11T15:52:00.362Z,71219.28
2022-09-11T15:54:28.521Z,71247.88
2022-09-11T15:56:56.185Z,71183.06
2022-09-11T15:59:23.709Z,71234.06
2022-09-11T16:01:51.301Z,71246.59
2022-09-11T16:04:21.244Z,71238.47
2022-09-11T16:06:50.057Z,71222.75
2022-09-11T16:09:23.167Z,71219.81
2022-09-11T16:11:51.783Z,71231.63
2022-09-11T16:14:27.491Z,71235.56
2022-09-11T16:16:57.119Z,71253.41
2022-09-11T16:19:28.143Z,71266.78
2022-09-11T16:22:01.276Z,71194.84
2022-09-11T16:24:31.657Z,71228.13
2022-09-11T16:27:01.666Z,71190.44
2022-09-11T16:29:51.112Z,71198.28
2022-09-11T16:32:28.076Z,71203.41
2022-09-11T16:34:57.328Z,71168.94
2022-09-11T16:37:25.830Z,71166.47
2022-09-11T16:39:53.271Z,71198.00
2022-09-11T16:42:21.663Z,71214.00
2022-09-11T16:44:50.122Z,71209.84
2022-09-11T16:47:18.425Z,71208.91
2022-09-11T16:52:34.641Z,71153.97
2022-09-11T16:55:02.149Z,71187.34
2022-09-11T16:57:29.880Z,71165.06
2022-09-11T16:59:57.753Z,71212.31
2022-09-11T17:02:25.840Z,71207.88
2022-09-11T17:04:53.532Z,71152.97
2022-09-11T17:07:20.930Z,71155.97
2022-09-11T17:09:48.452Z,71178.84
2022-09-11T17:12:17.754Z,71141.28
2022-09-11T17:14:45.223Z,71032.28
2022-09-11T17:17:12.617Z,71120.06
2022-09-11T17:19:40.191Z,71102.25
2022-09-11T17:22:08.588Z,71142.69
2022-09-11T17:24:36.451Z,71115.41
2022-09-11T17:27:04.079Z,71134.44
2022-09-11T17:29:31.531Z,71092.34
2022-09-11T17:32:23.680Z,71057.59
2022-09-11T17:34:47.793Z,71091.47
2022-09-11T17:37:15.430Z,71062.09
2022-09-11T17:39:43.458Z,71073.34
2022-09-11T17:42:13.437Z,71080.19
2022-09-11T17:44:41.409Z,71044.31
2022-09-11T17:47:09.641Z,71061.59
2022-09-11T17:49:37.202Z,71020.13
2022-09-11T17:52:04.999Z,71003.66
2022-09-11T17:54:32.690Z,71036.03
2022-09-11T17:57:00.113Z,70981.72
2022-09-11T17:59:27.895Z,71012.06
2022-09-11T18:01:55.411Z,71008.47
2022-09-11T18:04:22.837Z,71013.56
2022-09-11T18:06:51.178Z,70991.97
2022-09-11T18:09:19.933Z,70996.38
2022-09-11T18:11:53.805Z,70992.22
2022-09-11T18:14:21.626Z,71013.31
2022-09-11T18:16:49.266Z,71034.69
2022-09-11T18:19:20.327Z,71020.44
2022-09-11T18:21:50.416Z,71024.56
2022-09-11T18:24:20.695Z,70975.94
2022-09-11T18:26:51.394Z,70952.59
2022-09-11T18:29:20.699Z,70931.38
2022-09-11T18:31:51.729Z,70966.09
2022-09-11T18:34:24.919Z,70966.16
2022-09-11T18:36:52.704Z,70943.94
2022-09-11T18:39:21.194Z,70886.69
2022-09-11T18:41:49.867Z,70947.41
2022-09-11T18:44:20.569Z,70942.38
2022-09-11T18:46:51.699Z,70959.00
2022-09-11T18:49:19.436Z,70926.63
2022-09-11T18:51:46.775Z,70961.59
2022-09-11T18:54:16.552Z,70962.56
2022-09-11T18:56:45.242Z,70950.97
2022-09-11T18:59:13.653Z,70907.47
2022-09-11T19:01:41.859Z,70898.38
2022-09-11T19:04:11.526Z,70883.69
2022-09-11T19:06:39.766Z,70865.38
2022-09-11T19:09:10.335Z,70898.84
2022-09-11T19:11:38.797Z,70865.72
2022-09-11T19:14:08.594Z,70860.13
2022-09-11T19:16:37.918Z,70884.09
2022-09-11T19:19:07.251Z,70876.47
2022-09-11T19:21:35.187Z,70843.94
2022-09-11T19:24:02.933Z,70880.06
2022-09-11T19:26:38.097Z,70892.78
2022-09-11T19:29:06.310Z,70896.34
2022-09-11T19:31:34.087Z,70858.41
2022-09-11T19:34:02.545Z,70906.63
2022-09-11T19:36:35.354Z,70897.75
2022-09-11T19:39:03.718Z,70930.59
2022-09-11T19:41:37.295Z,70912.81
2022-09-11T19:44:07.114Z,70919.00
2022-09-11T19:46:35.722Z,70921.06
2022-09-11T19:49:05.663Z,70869.56
2022-09-11T19:51:38.926Z,70900.66
2022-09-11T19:54:07.415Z,70918.16
2022-09-11T19:56:37.549Z,70908.09
2022-09-11T19:59:06.019Z,70878.50
2022-09-11T20:01:33.770Z,70851.34
2022-09-11T20:04:01.405Z,70879.56
2022-09-11T20:06:31.618Z,70845.50
2022-09-11T20:09:29.279Z,70847.84
2022-09-11T20:11:48.130Z,70886.59
2022-09-11T20:14:15.833Z,70809.97
2022-09-11T20:16:43.186Z,70874.81
2022-09-11T20:19:11.161Z,70840.84
2022-09-11T20:21:39.157Z,70816.84
2022-09-11T20:24:07.300Z,70829.53
2022-09-11T20:26:35.621Z,70810.59
2022-09-11T20:29:13.781Z,70823.03
2022-09-11T20:31:47.557Z,70811.41
2022-09-11T20:34:19.795Z,70846.94
2022-09-11T20:36:47.719Z,70838.03
2022-09-11T20:39:16.420Z,70833.00
2022-09-11T20:41:44.986Z,70820.00
2022-09-11T20:44:12.621Z,70823.56
2022-09-11T20:46:40.588Z,70844.88
2022-09-11T20:49:08.077Z,70851.38
2022-09-11T20:51:35.572Z,70821.56
2022-09-11T20:54:03.065Z,70844.34
2022-09-11T20:56:30.517Z,70837.22
2022-09-11T20:58:58.273Z,70827.16
2022-09-11T21:01:27.218Z,70804.66
2022-09-11T21:03:57.130Z,70824.81
2022-09-11T21:06:27.473Z,70828.38
2022-09-11T21:08:57.419Z,70811.25
2022-09-11T21:11:25.766Z,70792.91
2022-09-11T21:13:53.171Z,70838.47
2022-09-11T21:16:21.076Z,70798.25
2022-09-11T21:18:51.448Z,70839.09
2022-09-11T21:21:20.570Z,70835.53
2022-09-11T21:23:48.392Z,70832.28
2022-09-11T21:26:18.224Z,70823.41
2022-09-11T21:28:45.800Z,70797.41
2022-09-11T21:31:13.427Z,70835.59
2022-09-11T21:33:41.263Z,70820.53
2022-09-11T21:36:09.070Z,70792.19
2022-09-11T21:38:37.243Z,70817.31
2022-09-11T21:41:08.646Z,70782.47
2022-09-11T21:43:36.687Z,70834.88
2022-09-11T21:46:06.556Z,70816.84
2022-09-11T21:48:39.152Z,70776.03
2022-09-11T21:51:12.303Z,70792.00
2022-09-11T21:53:42.121Z,70810.97
2022-09-11T21:56:24.812Z,70796.19
2022-09-11T21:58:53.234Z,70798.84
2022-09-11T22:01:21.976Z,70773.69
2022-09-11T22:03:50.522Z,70789.34
2022-09-11T22:06:19.065Z,70800.31
2022-09-11T22:08:47.145Z,70804.75
2022-09-11T22:11:15.259Z,70789.44
2022-09-11T22:13:43.013Z,70798.56
2022-09-11T22:16:18.363Z,70812.75
2022-09-11T22:18:49.879Z,70765.75
2022-09-11T22:21:17.841Z,70807.44
2022-09-11T22:23:45.570Z,70819.25
2022-09-11T22:26:16.532Z,70792.34
2022-09-11T22:28:44.373Z,70782.91
2022-09-11T22:31:18.326Z,70784.97
2022-09-11T22:33:48.359Z,70804.19
2022-09-11T22:36:21.020Z,70782.91
2022-09-11T22:38:49.235Z,70829.31
2022-09-11T22:41:17.222Z,70813.94
2022-09-11T22:43:49.951Z,70800.94
2022-09-11T22:46:19.931Z,70797.97
2022-09-11T22:48:47.964Z,70832.25
2022-09-11T22:51:15.585Z,70812.41
2022-09-11T22:53:43.175Z,70866.53
2022-09-11T22:56:10.563Z,70854.13
2022-09-11T22:58:38.527Z,70791.38
2022-09-11T23:01:08.227Z,70824.50
2022-09-11T23:03:36.137Z,70807.06
2022-09-11T23:06:23.016Z,70832.81
2022-09-11T23:08:51.198Z,70818.34
2022-09-11T23:11:19.947Z,70860.66
2022-09-11T23:13:48.668Z,70811.25
2022-09-11T23:16:22.261Z,70810.69
2022-09-11T23:18:54.773Z,70802.72
2022-09-11T23:21:22.229Z,70817.78
2022-09-11T23:23:54.276Z,70792.09
2022-09-11T23:26:22.993Z,70781.44
2022-09-11T23:28:50.840Z,70781.47
2022-09-11T23:31:20.798Z,70754.91
2022-09-11T23:33:48.877Z,70783.84
2022-09-11T23:36:16.623Z,70769.97
2022-09-11T23:38:48.556Z,70793.88
2022-09-11T23:41:17.454Z,70771.09
2022-09-11T23:43:46.276Z,70795.38
2022-09-11T23:46:14.348Z,70746.84
2022-09-11T23:48:42.241Z,70782.69
2022-09-11T23:51:10.456Z,70757.22
2022-09-11T23:53:39.795Z,70803.06
2022-09-11T23:56:08.221Z,70782.44
2022-09-11T23:58:39.834Z,70799.56
